createdAt,value
2019-03-20T00:00:06.318Z,26.97
2019-03-20T00:02:37.749Z,32.33
2019-03-20T00:05:07.141Z,30.50
2019-03-20T00:07:36.634Z,35.40
2019-03-20T00:10:06.337Z,26.83
2019-03-20T00:12:34.649Z,25.83
2019-03-20T00:15:04.048Z,23.63
2019-03-20T00:17:32.454Z,31.73
2019-03-20T00:20:00.994Z,33.47
2019-03-20T00:22:29.262Z,34.10
2019-03-20T00:24:57.562Z,32.30
2019-03-20T00:27:25.949Z,33.87
2019-03-20T00:29:54.369Z,34.03
2019-03-20T00:32:22.922Z,28.53
2019-03-20T00:35:00.588Z,31.97
2019-03-20T00:37:21.264Z,29.60
2019-03-20T00:39:49.569Z,32.23
2019-03-20T00:42:17.869Z,26.33
2019-03-20T00:44:46.208Z,28.87
2019-03-20T00:47:14.569Z,32.37
2019-03-20T00:49:42.940Z,30.87
2019-03-20T00:52:11.150Z,35.30
2019-03-20T00:54:39.503Z,32.73
2019-03-20T00:57:07.954Z,32.13
2019-03-20T00:59:36.309Z,30.60
2019-03-20T01:02:04.761Z,35.10
2019-03-20T01:04:33.080Z,34.00
2019-03-20T01:07:01.371Z,32.70
2019-03-20T01:09:29.774Z,27.93
2019-03-20T01:11:58.269Z,34.20
2019-03-20T01:14:26.603Z,33.37
2019-03-20T01:16:54.882Z,27.07
2019-03-20T01:19:23.454Z,35.50
2019-03-20T01:21:51.976Z,41.73
2019-03-20T01:24:20.329Z,35.23
2019-03-20T01:26:48.649Z,35.83
2019-03-20T01:29:16.985Z,35.93
2019-03-20T01:31:45.321Z,33.80
2019-03-20T01:34:13.757Z,31.97
2019-03-20T01:36:42.061Z,33.87
2019-03-20T01:39:10.449Z,28.33
2019-03-20T01:41:38.874Z,21.90
2019-03-20T01:44:07.261Z,42.70
2019-03-20T01:46:35.687Z,32.67
2019-03-20T01:49:05.368Z,33.27
2019-03-20T01:51:33.661Z,35.30
2019-03-20T01:54:02.001Z,24.63
2019-03-20T01:56:31.544Z,34.63
2019-03-20T01:58:59.848Z,31.57
2019-03-20T02:01:28.009Z,43.97
2019-03-20T02:03:56.335Z,37.93
2019-03-20T02:06:24.648Z,29.73
2019-03-20T02:08:53.138Z,30.27
2019-03-20T02:11:21.528Z,40.57
2019-03-20T02:13:49.867Z,34.13
2019-03-20T02:16:18.319Z,39.37
2019-03-20T02:18:46.626Z,34.30
2019-03-20T02:21:15.018Z,38.17
2019-03-20T02:23:43.389Z,37.83
2019-03-20T02:26:11.764Z,33.33
2019-03-20T02:28:40.044Z,35.17
2019-03-20T02:31:10.843Z,41.77
2019-03-20T02:33:39.173Z,35.83
2019-03-20T02:36:07.548Z,36.97
2019-03-20T02:38:35.881Z,38.03
2019-03-20T02:41:04.260Z,36.37
2019-03-20T02:43:32.597Z,46.70
2019-03-20T02:46:01.052Z,37.50
2019-03-20T02:48:29.422Z,38.97
2019-03-20T02:50:57.722Z,39.00
2019-03-20T02:53:26.088Z,46.40
2019-03-20T02:55:54.301Z,36.27
2019-03-20T02:58:22.757Z,41.27
2019-03-20T03:00:50.996Z,32.00
2019-03-20T03:03:19.197Z,44.93
2019-03-20T03:05:48.326Z,43.17
2019-03-20T03:08:16.731Z,48.10
2019-03-20T03:10:45.181Z,34.13
2019-03-20T03:13:13.651Z,30.13
2019-03-20T03:15:41.910Z,35.30
2019-03-20T03:18:10.232Z,40.57
2019-03-20T03:20:39.601Z,59.50
2019-03-20T03:23:08.020Z,46.93
2019-03-20T03:25:36.277Z,39.90
2019-03-20T03:28:04.746Z,42.07
2019-03-20T03:30:33.037Z,42.80
2019-03-20T03:33:01.342Z,41.93
2019-03-20T03:35:29.670Z,35.57
2019-03-20T03:37:58.177Z,35.03
2019-03-20T03:40:26.628Z,30.33
2019-03-20T03:42:55.021Z,30.67
2019-03-20T03:45:23.439Z,36.97
2019-03-20T03:47:51.711Z,33.57
2019-03-20T03:50:20.042Z,45.87
2019-03-20T03:52:48.342Z,39.90
2019-03-20T03:55:16.717Z,46.20
2019-03-20T03:57:44.999Z,42.43
2019-03-20T04:00:14.825Z,35.03
2019-03-20T04:02:43.086Z,46.17
2019-03-20T04:05:12.531Z,45.90
2019-03-20T04:07:40.980Z,41.77
2019-03-20T04:10:10.949Z,43.00
2019-03-20T04:12:39.190Z,45.30
2019-03-20T04:15:09.349Z,38.17
2019-03-20T04:17:37.757Z,32.40
2019-03-20T04:20:07.539Z,38.90
2019-03-20T04:22:35.739Z,44.87
2019-03-20T04:25:05.411Z,36.77
2019-03-20T04:27:33.675Z,37.87
2019-03-20T04:30:02.209Z,42.10
2019-03-20T04:32:30.739Z,42.33
2019-03-20T04:34:59.120Z,47.47
2019-03-20T04:37:27.430Z,42.40
2019-03-20T04:39:55.829Z,47.67
2019-03-20T04:42:24.210Z,51.17
2019-03-20T04:44:52.597Z,38.97
2019-03-20T04:47:21.042Z,39.80
2019-03-20T04:49:50.442Z,39.93
2019-03-20T04:52:18.762Z,51.70
2019-03-20T04:54:47.066Z,36.60
2019-03-20T04:57:15.357Z,37.77
2019-03-20T04:59:43.694Z,36.97
2019-03-20T05:02:11.969Z,40.37
2019-03-20T05:04:40.303Z,45.10
2019-03-20T05:07:08.669Z,48.90
2019-03-20T05:09:37.217Z,36.57
2019-03-20T05:12:05.542Z,57.80
2019-03-20T05:14:33.910Z,45.10
2019-03-20T05:17:02.201Z,46.27
2019-03-20T05:19:30.617Z,40.90
2019-03-20T05:21:59.119Z,45.40
2019-03-20T05:24:27.322Z,44.47
2019-03-20T05:26:55.650Z,44.13
2019-03-20T05:29:23.964Z,32.63
2019-03-20T05:31:53.325Z,39.70
2019-03-20T05:37:37.469Z,44.67
2019-03-20T05:40:07.412Z,41.57
2019-03-20T05:42:35.894Z,38.97
2019-03-20T05:45:05.708Z,36.70
2019-03-20T05:47:34.126Z,47.43
2019-03-20T05:50:02.501Z,43.13
2019-03-20T05:52:30.846Z,44.17
2019-03-20T05:54:59.142Z,37.37
2019-03-20T05:57:27.667Z,42.37
2019-03-20T05:59:55.949Z,41.57
2019-03-20T06:02:25.833Z,42.97
2019-03-20T06:04:55.509Z,38.17
2019-03-20T06:07:23.822Z,34.87
2019-03-20T06:09:52.202Z,48.17
2019-03-20T06:12:20.517Z,34.57
2019-03-20T06:14:49.138Z,47.30
2019-03-20T06:17:17.459Z,48.53
2019-03-20T06:19:45.687Z,43.00
2019-03-20T06:22:15.307Z,39.17
2019-03-20T06:24:43.683Z,35.27
2019-03-20T06:27:12.121Z,43.70
2019-03-20T06:29:40.597Z,40.77
2019-03-20T06:32:08.843Z,53.10
2019-03-20T06:34:37.188Z,47.43
2019-03-20T06:37:05.510Z,37.83
2019-03-20T06:39:33.957Z,45.87
2019-03-20T06:42:02.243Z,39.17
2019-03-20T06:44:30.610Z,37.23
2019-03-20T06:46:58.962Z,41.60
2019-03-20T06:49:27.262Z,36.97
2019-03-20T06:51:55.534Z,41.03
2019-03-20T06:54:23.841Z,34.57
2019-03-20T06:56:52.197Z,36.67
2019-03-20T06:59:21.981Z,39.20
2019-03-20T07:01:50.233Z,42.27
2019-03-20T07:04:20.488Z,36.43
2019-03-20T07:06:50.253Z,36.47
2019-03-20T07:09:18.390Z,32.20
2019-03-20T07:11:47.091Z,31.00
2019-03-20T07:14:15.489Z,34.30
2019-03-20T07:16:43.809Z,29.83
2019-03-20T07:19:12.237Z,28.33
2019-03-20T07:21:40.609Z,28.37
2019-03-20T07:24:08.922Z,32.50
2019-03-20T07:26:37.355Z,34.33
2019-03-20T07:29:05.881Z,30.93
2019-03-20T07:31:34.129Z,29.43
2019-03-20T07:34:02.341Z,23.73
2019-03-20T07:36:31.765Z,29.33
2019-03-20T07:39:00.274Z,32.23
2019-03-20T07:41:28.531Z,28.97
2019-03-20T07:44:00.964Z,31.60
2019-03-20T07:46:29.241Z,33.30
2019-03-20T07:48:57.792Z,28.20
2019-03-20T07:51:26.209Z,30.33
2019-03-20T07:53:54.583Z,32.33
2019-03-20T07:56:22.882Z,31.50
2019-03-20T07:58:52.616Z,28.93
2019-03-20T08:01:20.993Z,32.10
2019-03-20T08:03:49.396Z,26.03
2019-03-20T08:06:17.906Z,25.73
2019-03-20T08:08:46.129Z,35.13
2019-03-20T08:11:14.657Z,34.73
2019-03-20T08:13:43.027Z,28.73
2019-03-20T08:16:11.297Z,26.70
2019-03-20T08:18:39.671Z,26.27
2019-03-20T08:21:07.966Z,30.27
2019-03-20T08:23:36.429Z,25.63
2019-03-20T08:26:04.704Z,27.23
2019-03-20T08:28:33.096Z,22.17
2019-03-20T08:31:01.397Z,25.63
2019-03-20T08:33:29.870Z,24.63
2019-03-20T08:35:58.437Z,25.70
2019-03-20T08:38:26.817Z,22.57
2019-03-20T08:40:55.113Z,24.97
2019-03-20T08:43:23.451Z,20.43
2019-03-20T08:45:51.762Z,25.70
2019-03-20T08:48:20.159Z,14.83
2019-03-20T08:50:48.649Z,17.53
2019-03-20T08:53:18.141Z,18.60
2019-03-20T08:55:46.697Z,25.90
2019-03-20T08:58:15.074Z,18.10
2019-03-20T09:00:43.292Z,29.70
2019-03-20T09:03:14.196Z,25.40
2019-03-20T09:05:43.238Z,15.90
2019-03-20T09:08:11.502Z,20.47
2019-03-20T09:10:39.842Z,16.97
2019-03-20T09:13:08.181Z,16.87
2019-03-20T09:15:36.709Z,17.13
2019-03-20T09:18:05.640Z,19.80
2019-03-20T09:20:33.971Z,14.60
2019-03-20T09:23:02.393Z,23.17
2019-03-20T09:25:30.637Z,8.63
2019-03-20T09:27:59.034Z,16.50
2019-03-20T09:30:27.961Z,13.77
2019-03-20T09:32:56.621Z,10.07
2019-03-20T09:35:25.301Z,20.07
2019-03-20T09:37:53.607Z,14.47
2019-03-20T09:40:25.402Z,13.73
2019-03-20T09:42:53.785Z,16.07
2019-03-20T09:45:22.367Z,19.30
2019-03-20T09:47:50.693Z,6.67
2019-03-20T09:50:20.529Z,15.87
2019-03-20T09:52:50.053Z,15.77
2019-03-20T09:55:18.744Z,17.63
2019-03-20T09:57:47.225Z,17.87
2019-03-20T10:00:17.120Z,22.80
2019-03-20T10:02:45.541Z,13.90
2019-03-20T10:05:14.041Z,15.30
2019-03-20T10:07:42.614Z,14.57
2019-03-20T10:10:12.440Z,17.30
2019-03-20T10:12:40.991Z,15.97
2019-03-20T10:15:10.773Z,16.47
2019-03-20T10:17:39.209Z,17.57
2019-03-20T10:20:09.158Z,16.63
2019-03-20T10:22:39.000Z,21.60
2019-03-20T10:25:09.362Z,13.07
2019-03-20T10:27:37.781Z,16.53
2019-03-20T10:30:07.758Z,11.27
2019-03-20T10:32:36.200Z,15.07
2019-03-20T10:35:06.121Z,17.20
2019-03-20T10:37:34.495Z,16.50
2019-03-20T10:40:03.005Z,12.90
2019-03-20T10:42:31.328Z,13.80
2019-03-20T10:44:59.720Z,14.47
2019-03-20T10:47:28.120Z,14.63
2019-03-20T10:49:56.649Z,13.63
2019-03-20T10:52:25.081Z,17.27
2019-03-20T10:54:53.387Z,12.47
2019-03-20T10:57:21.829Z,17.77
2019-03-20T10:59:50.194Z,12.80
2019-03-20T11:02:18.594Z,15.43
2019-03-20T11:04:47.221Z,16.87
2019-03-20T11:07:15.495Z,17.23
2019-03-20T11:09:43.882Z,11.43
2019-03-20T11:12:12.358Z,13.40
2019-03-20T11:14:40.659Z,16.33
2019-03-20T11:17:10.225Z,22.63
2019-03-20T11:19:38.424Z,9.03
2019-03-20T11:22:18.040Z,14.87
2019-03-20T11:24:36.781Z,16.77
2019-03-20T11:27:05.289Z,11.47
2019-03-20T11:29:33.786Z,14.83
2019-03-20T11:32:02.123Z,11.93
2019-03-20T11:34:31.561Z,9.83
2019-03-20T11:37:00.054Z,12.63
2019-03-20T11:39:29.837Z,11.43
2019-03-20T11:41:58.472Z,11.03
2019-03-20T11:44:28.151Z,8.03
2019-03-20T11:46:56.409Z,15.53
2019-03-20T11:49:24.819Z,11.63
2019-03-20T11:51:54.717Z,14.43
2019-03-20T11:54:23.070Z,15.03
2019-03-20T11:56:52.787Z,17.23
2019-03-20T11:59:21.182Z,12.00
2019-03-20T12:01:49.638Z,21.50
2019-03-20T12:04:19.049Z,15.07
2019-03-20T12:06:48.704Z,12.67
2019-03-20T12:09:17.157Z,24.50
2019-03-20T12:11:46.328Z,15.20
2019-03-20T12:14:14.959Z,13.23
2019-03-20T12:16:43.318Z,13.80
2019-03-20T12:19:11.616Z,18.07
2019-03-20T12:21:40.016Z,16.70
2019-03-20T12:24:08.388Z,15.40
2019-03-20T12:26:36.695Z,12.13
2019-03-20T12:29:05.072Z,13.47
2019-03-20T12:31:33.403Z,12.60
2019-03-20T12:34:02.312Z,14.60
2019-03-20T12:36:30.968Z,14.03
2019-03-20T12:38:59.558Z,12.63
2019-03-20T12:41:31.112Z,18.03
2019-03-20T12:43:59.489Z,18.07
2019-03-20T12:46:40.942Z,19.97
2019-03-20T12:48:59.736Z,15.73
2019-03-20T12:51:28.218Z,15.33
2019-03-20T12:53:56.584Z,12.83
2019-03-20T12:56:24.973Z,12.70
2019-03-20T12:58:53.492Z,12.27
2019-03-20T13:01:21.957Z,18.53
2019-03-20T13:03:50.413Z,13.60
2019-03-20T13:06:18.862Z,11.87
2019-03-20T13:08:47.114Z,13.47
2019-03-20T13:11:15.657Z,12.90
2019-03-20T13:13:45.039Z,13.50
2019-03-20T13:16:14.519Z,13.70
2019-03-20T13:18:42.901Z,12.10
2019-03-20T13:21:11.439Z,15.30
2019-03-20T13:23:39.902Z,13.00
2019-03-20T13:26:08.294Z,18.67
2019-03-20T13:28:36.689Z,20.90
2019-03-20T13:31:06.452Z,10.50
2019-03-20T13:33:34.977Z,13.97
2019-03-20T13:36:03.381Z,22.47
2019-03-20T13:38:31.696Z,11.67
2019-03-20T13:41:00.049Z,15.90
2019-03-20T13:43:29.451Z,19.17
2019-03-20T13:45:57.737Z,16.13
2019-03-20T13:50:57.868Z,16.77
2019-03-20T13:53:26.457Z,15.03
2019-03-20T13:55:54.685Z,14.53
2019-03-20T13:58:23.082Z,13.93
2019-03-20T14:00:51.534Z,15.23
2019-03-20T14:03:19.895Z,17.30
2019-03-20T14:05:48.229Z,18.40
2019-03-20T14:08:17.686Z,13.73
2019-03-20T14:10:50.232Z,9.13
2019-03-20T14:13:16.209Z,14.37
2019-03-20T14:15:44.672Z,13.20
2019-03-20T14:18:13.084Z,17.37
2019-03-20T14:20:41.402Z,16.60
2019-03-20T14:23:12.452Z,17.30
2019-03-20T14:25:41.011Z,16.10
2019-03-20T14:28:09.370Z,19.20
2019-03-20T14:30:37.722Z,13.97
2019-03-20T14:33:07.049Z,17.33
2019-03-20T14:35:35.411Z,13.77
2019-03-20T14:38:03.818Z,15.07
2019-03-20T14:40:36.730Z,11.57
2019-03-20T14:43:05.117Z,16.87
2019-03-20T14:45:33.581Z,14.33
2019-03-20T14:48:01.803Z,12.57
2019-03-20T14:50:32.649Z,15.30
2019-03-20T14:53:01.126Z,10.43
2019-03-20T14:55:29.538Z,13.37
2019-03-20T14:57:58.043Z,16.70
2019-03-20T15:00:26.876Z,17.20
2019-03-20T15:02:55.441Z,13.37
2019-03-20T15:05:23.961Z,11.73
2019-03-20T15:07:52.532Z,16.13
2019-03-20T15:10:21.474Z,15.67
2019-03-20T15:12:50.049Z,16.47
2019-03-20T15:15:20.123Z,17.50
2019-03-20T15:17:48.327Z,19.17
2019-03-20T15:20:16.670Z,17.60
2019-03-20T15:22:44.939Z,14.70
2019-03-20T15:25:13.177Z,14.90
2019-03-20T15:27:41.528Z,16.17
2019-03-20T15:30:11.456Z,15.87
2019-03-20T15:32:39.776Z,10.83
2019-03-20T15:35:08.461Z,14.73
2019-03-20T15:37:36.809Z,16.73
2019-03-20T15:40:06.716Z,17.30
2019-03-20T15:42:35.277Z,14.40
2019-03-20T15:45:07.649Z,16.57
2019-03-20T15:47:35.975Z,14.53
2019-03-20T15:50:06.009Z,14.73
2019-03-20T15:52:34.425Z,13.20
2019-03-20T15:55:02.918Z,10.30
2019-03-20T15:57:31.366Z,14.50
2019-03-20T15:59:59.726Z,18.23
2019-03-20T16:02:28.053Z,16.30
2019-03-20T16:04:56.370Z,13.40
2019-03-20T16:07:24.766Z,18.30
2019-03-20T16:09:52.962Z,13.83
2019-03-20T16:12:21.303Z,11.27
2019-03-20T16:14:49.857Z,23.63
2019-03-20T16:17:18.209Z,14.80
2019-03-20T16:19:46.699Z,13.67
2019-03-20T16:22:15.211Z,16.97
2019-03-20T16:24:43.678Z,14.10
2019-03-20T16:27:12.044Z,12.77
2019-03-20T16:29:40.394Z,16.13
2019-03-20T16:32:08.829Z,15.70
2019-03-20T16:34:37.179Z,14.47
2019-03-20T16:37:05.570Z,16.30
2019-03-20T16:39:33.845Z,15.80
2019-03-20T16:42:02.209Z,15.60
2019-03-20T16:44:30.587Z,14.90
2019-03-20T16:46:58.919Z,14.73
2019-03-20T16:49:27.460Z,18.77
2019-03-20T16:51:55.929Z,19.23
2019-03-20T16:54:24.342Z,16.07
2019-03-20T16:56:52.791Z,21.30
2019-03-20T16:59:21.087Z,19.00
2019-03-20T17:01:49.555Z,14.47
2019-03-20T17:04:17.798Z,16.27
2019-03-20T17:06:46.253Z,19.43
2019-03-20T17:09:14.697Z,14.13
2019-03-20T17:11:42.977Z,15.43
2019-03-20T17:14:11.578Z,17.23
2019-03-20T17:16:42.843Z,12.00
2019-03-20T17:19:09.882Z,11.27
2019-03-20T17:21:38.331Z,9.30
2019-03-20T17:24:06.528Z,18.17
2019-03-20T17:26:34.783Z,18.83
2019-03-20T17:29:08.999Z,27.17
2019-03-20T17:31:33.174Z,31.00
2019-03-20T17:34:02.424Z,27.53
2019-03-20T17:36:30.784Z,30.80
2019-03-20T17:38:59.201Z,30.50
2019-03-20T17:41:36.429Z,29.93
2019-03-20T17:43:57.533Z,17.60
2019-03-20T17:46:25.779Z,20.60
2019-03-20T17:48:54.215Z,24.50
2019-03-20T17:51:23.938Z,27.17
2019-03-20T17:53:52.187Z,29.33
2019-03-20T17:56:20.578Z,24.23
2019-03-20T17:58:49.004Z,24.97
2019-03-20T18:01:17.347Z,23.97
2019-03-20T18:03:46.822Z,16.03
2019-03-20T18:06:15.207Z,15.53
2019-03-20T18:08:43.684Z,24.90
2019-03-20T18:11:11.969Z,15.23
2019-03-20T18:13:40.287Z,17.73
2019-03-20T18:16:08.722Z,24.37
2019-03-20T18:18:37.082Z,29.57
2019-03-20T18:21:05.483Z,35.23
2019-03-20T18:23:34.808Z,39.13
2019-03-20T18:26:03.262Z,26.83
2019-03-20T18:28:31.639Z,29.17
2019-03-20T18:30:59.962Z,33.37
2019-03-20T18:33:28.400Z,31.30
2019-03-20T18:35:56.677Z,26.03
2019-03-20T18:38:24.900Z,34.93
2019-03-20T18:40:53.198Z,32.00
2019-03-20T18:43:21.758Z,22.13
2019-03-20T18:45:52.251Z,26.67
2019-03-20T18:48:20.045Z,17.90
2019-03-20T18:50:48.301Z,21.47
2019-03-20T18:53:16.638Z,21.43
2019-03-20T18:55:44.942Z,16.27
2019-03-20T18:58:13.657Z,16.83
2019-03-20T19:00:42.209Z,19.13
2019-03-20T19:03:12.126Z,17.97
2019-03-20T19:05:42.043Z,31.00
2019-03-20T19:08:10.436Z,38.17
2019-03-20T19:10:38.921Z,32.87
2019-03-20T19:13:08.241Z,23.63
2019-03-20T19:15:36.563Z,37.27
2019-03-20T19:18:05.087Z,39.67
2019-03-20T19:20:33.672Z,38.03
2019-03-20T19:23:02.257Z,40.27
2019-03-20T19:25:30.472Z,31.73
2019-03-20T19:27:59.106Z,30.73
2019-03-20T19:30:27.451Z,29.70
2019-03-20T19:32:55.801Z,25.50
2019-03-20T19:35:24.239Z,27.30
2019-03-20T19:37:52.669Z,33.00
2019-03-20T19:40:25.005Z,25.53
2019-03-20T19:42:53.420Z,32.70
2019-03-20T19:45:22.358Z,22.93
2019-03-20T19:47:51.057Z,41.40
2019-03-20T19:50:19.977Z,27.70
2019-03-20T19:52:48.211Z,32.30
2019-03-20T19:55:17.129Z,24.67
2019-03-20T19:57:48.697Z,24.87
2019-03-20T20:00:18.899Z,20.83
2019-03-20T20:02:59.868Z,24.30
2019-03-20T20:05:38.792Z,25.87
2019-03-20T20:08:11.351Z,18.47
2019-03-20T20:10:39.804Z,21.03
2019-03-20T20:16:29.817Z,26.53
2019-03-20T20:22:14.980Z,19.57
2019-03-20T20:28:00.035Z,22.37
2019-03-20T20:30:28.488Z,19.17
2019-03-20T20:36:12.362Z,23.53
2019-03-20T20:41:56.914Z,27.67
2019-03-20T20:47:41.787Z,28.17
2019-03-20T20:53:13.923Z,30.97
2019-03-20T20:58:59.081Z,22.63
2019-03-20T21:01:30.002Z,18.97
2019-03-20T21:03:57.302Z,18.50
2019-03-20T21:06:25.617Z,27.27
2019-03-20T21:08:54.022Z,22.47
2019-03-20T21:14:38.181Z,22.87
2019-03-20T21:17:07.728Z,25.97
2019-03-20T21:19:36.369Z,26.97
2019-03-20T21:25:20.542Z,24.80
2019-03-20T21:31:07.360Z,20.30
2019-03-20T21:36:54.712Z,24.33
2019-03-20T21:39:23.646Z,22.13
2019-03-20T21:41:53.629Z,30.37
2019-03-20T21:44:25.668Z,30.47
2019-03-20T21:50:13.196Z,21.03
2019-03-20T21:55:58.443Z,18.80
2019-03-20T21:58:28.538Z,22.67
2019-03-20T22:04:13.527Z,22.93
2019-03-20T22:09:59.962Z,27.80
2019-03-20T22:15:46.442Z,32.13
2019-03-20T22:21:33.057Z,19.60
2019-03-20T22:24:02.902Z,16.40
2019-03-20T22:26:30.759Z,23.90
2019-03-20T22:32:15.890Z,28.63
2019-03-20T22:34:45.744Z,27.43
2019-03-20T22:40:31.701Z,23.47
2019-03-20T22:43:01.599Z,22.70
2019-03-20T22:45:31.560Z,21.20
2019-03-20T22:48:02.579Z,23.07
2019-03-20T22:50:32.297Z,17.97
2019-03-20T22:53:02.316Z,18.63
2019-03-20T22:58:46.577Z,23.63
2019-03-20T23:04:31.949Z,24.13
2019-03-20T23:07:00.377Z,28.50
2019-03-20T23:09:28.609Z,22.73
2019-03-20T23:11:59.342Z,23.43
2019-03-20T23:17:56.529Z,22.30
2019-03-20T23:23:41.984Z,21.07
2019-03-20T23:29:27.589Z,23.13
2019-03-20T23:31:55.966Z,18.97
2019-03-20T23:34:24.337Z,19.73
2019-03-20T23:36:52.931Z,24.40
2019-03-20T23:39:21.236Z,22.37
2019-03-20T23:44:53.881Z,20.27
2019-03-20T23:50:38.520Z,23.07
2019-03-20T23:56:23.609Z,17.80
2019-03-20T23:58:52.106Z,18.53
